createdAt,value
2023-04-01T00:02:07.824Z,99129.09
2023-04-01T00:05:11.265Z,99134.56
2023-04-01T00:08:13.264Z,99128.38
2023-04-01T00:11:15.907Z,99129.09
2023-04-01T00:14:17.677Z,99126.28
2023-04-01T00:17:19.452Z,99130.41
2023-04-01T00:20:21.964Z,99127.62
2023-04-01T00:23:23.702Z,99128.97
2023-04-01T00:26:26.275Z,99132.16
2023-04-01T00:29:30.269Z,99139.56
2023-04-01T00:32:32.416Z,99128.72
2023-04-01T00:35:34.528Z,99137.97
2023-04-01T00:38:37.195Z,99137.25
2023-04-01T00:41:39.220Z,99128.97
2023-04-01T00:44:41.616Z,99130.56
2023-04-01T00:47:43.537Z,99143.69
2023-04-01T00:50:52.162Z,99129.22
2023-04-01T00:53:55.428Z,99122.19
2023-04-01T00:57:07.372Z,99114.75
2023-04-01T01:00:12.105Z,99122.38
2023-04-01T01:03:14.064Z,99116.19
2023-04-01T01:06:32.803Z,99111.06
2023-04-01T01:09:46.831Z,99114.00
2023-04-01T01:12:48.713Z,99124.59
2023-04-01T01:16:04.964Z,99128.28
2023-04-01T01:19:32.709Z,99119.84
2023-04-01T01:22:53.799Z,99109.37
2023-04-01T01:26:34.152Z,99105.72
2023-04-01T01:29:38.983Z,99119.00
2023-04-01T01:33:02.424Z,99103.63
2023-04-01T01:36:08.007Z,99077.88
2023-04-01T01:39:10.591Z,99083.19
2023-04-01T01:42:14.812Z,99068.78
2023-04-01T01:45:19.931Z,99077.69
2023-04-01T01:48:22.235Z,99072.22
2023-04-01T01:51:24.930Z,99082.25
2023-04-01T01:54:27.072Z,99083.25
2023-04-01T01:57:35.012Z,99075.78
2023-04-01T02:00:37.295Z,99101.75
2023-04-01T02:03:40.876Z,99113.50
2023-04-01T02:06:47.762Z,99123.31
2023-04-01T02:09:49.821Z,99116.37
2023-04-01T02:12:53.038Z,99122.69
2023-04-01T02:16:00.197Z,99113.31
2023-04-01T02:19:02.663Z,99116.63
2023-04-01T02:22:05.540Z,99098.56
2023-04-01T02:25:10.638Z,99106.34
2023-04-01T02:28:13.952Z,99092.84
2023-04-01T02:31:15.937Z,99081.75
2023-04-01T02:34:17.972Z,99079.94
2023-04-01T02:37:19.847Z,99078.94
2023-04-01T02:40:22.011Z,99075.88
2023-04-01T02:43:24.328Z,99071.91
2023-04-01T02:46:26.601Z,99062.03
2023-04-01T02:49:28.537Z,99069.00
2023-04-01T02:52:31.067Z,99061.84
2023-04-01T02:55:34.661Z,99078.28
2023-04-01T02:58:37.151Z,99080.59
2023-04-01T03:01:39.508Z,99075.72
2023-04-01T03:04:41.642Z,99079.75
2023-04-01T03:07:43.407Z,99076.47
2023-04-01T03:10:45.285Z,99074.06
2023-04-01T03:13:47.004Z,99074.06
2023-04-01T03:16:48.799Z,99073.22
2023-04-01T03:19:50.708Z,99079.31
2023-04-01T03:22:52.573Z,99070.56
2023-04-01T03:25:54.328Z,99066.41
2023-04-01T03:28:56.617Z,99058.88
2023-04-01T03:31:59.868Z,99061.47
2023-04-01T03:35:01.736Z,99057.94
2023-04-01T03:38:03.780Z,99056.25
2023-04-01T03:41:05.610Z,99047.72
2023-04-01T03:44:07.592Z,99069.16
2023-04-01T03:47:10.142Z,99063.41
2023-04-01T03:50:12.280Z,99076.53
2023-04-01T03:53:14.376Z,99077.78
2023-04-01T03:56:16.134Z,99093.34
2023-04-01T03:59:18.050Z,99102.34
2023-04-01T04:02:20.620Z,99092.47
2023-04-01T04:05:22.513Z,99076.50
2023-04-01T04:08:24.326Z,99083.81
2023-04-01T04:11:26.757Z,99088.78
2023-04-01T04:14:28.585Z,99084.69
2023-04-01T04:17:30.560Z,99091.84
2023-04-01T04:20:32.407Z,99099.41
2023-04-01T04:23:34.715Z,99092.22
2023-04-01T04:26:36.960Z,99099.78
2023-04-01T04:29:38.817Z,99107.22
2023-04-01T04:32:41.744Z,99095.50
2023-04-01T04:35:43.617Z,99085.91
2023-04-01T04:38:45.898Z,99091.50
2023-04-01T04:41:47.837Z,99097.47
2023-04-01T04:44:49.693Z,99101.37
2023-04-01T04:47:51.837Z,99095.03
2023-04-01T04:50:53.653Z,99098.19
2023-04-01T04:53:55.550Z,99092.84
2023-04-01T04:56:57.542Z,99102.34
2023-04-01T04:59:59.626Z,99096.72
2023-04-01T05:03:01.778Z,99094.75
2023-04-01T05:06:04.050Z,99089.62
2023-04-01T05:09:05.930Z,99086.13
2023-04-01T05:12:08.012Z,99093.28
2023-04-01T05:15:10.291Z,99086.16
2023-04-01T05:18:12.132Z,99086.13
2023-04-01T05:21:15.944Z,99071.37
2023-04-01T05:24:17.705Z,99065.41
2023-04-01T05:27:19.596Z,99035.97
2023-04-01T05:30:21.604Z,98986.50
2023-04-01T05:33:23.468Z,98974.84
2023-04-01T05:36:25.466Z,99008.97
2023-04-01T05:39:27.431Z,99022.88
2023-04-01T05:42:29.423Z,99024.16
2023-04-01T05:45:31.600Z,99046.13
2023-04-01T05:48:35.823Z,99053.22
2023-04-01T05:51:38.434Z,99058.16
2023-04-01T05:54:40.273Z,99056.47
2023-04-01T05:57:42.104Z,99053.97
2023-04-01T06:00:44.468Z,99050.63
2023-04-01T06:03:47.313Z,99049.91
2023-04-01T06:06:49.312Z,99035.63
2023-04-01T06:09:51.036Z,99047.19
2023-04-01T06:13:13.775Z,99031.31
2023-04-01T06:16:21.358Z,99023.38
2023-04-01T06:19:41.134Z,99026.19
2023-04-01T06:22:45.989Z,99029.84
2023-04-01T06:25:59.931Z,99021.78
2023-04-01T06:29:04.715Z,99012.06
2023-04-01T06:32:23.023Z,99028.03
2023-04-01T06:35:43.584Z,99023.22
2023-04-01T06:38:48.527Z,99030.41
2023-04-01T06:42:08.755Z,99033.53
2023-04-01T06:45:27.563Z,99027.56
2023-04-01T06:48:35.524Z,99029.09
2023-04-01T06:51:53.860Z,99014.34
2023-04-01T06:55:34.401Z,99025.47
2023-04-01T06:58:47.444Z,99015.81
2023-04-01T07:01:52.939Z,99021.50
2023-04-01T07:04:56.844Z,99025.53
2023-04-01T07:08:01.140Z,99014.06
2023-04-01T07:11:05.743Z,99014.97
2023-04-01T07:14:18.623Z,99023.38
2023-04-01T07:17:29.869Z,99012.53
2023-04-01T07:20:36.668Z,99025.37
2023-04-01T07:23:41.342Z,99012.59
2023-04-01T07:26:44.230Z,99006.69
2023-04-01T07:29:46.579Z,99000.91
2023-04-01T07:32:53.054Z,99009.41
2023-04-01T07:36:36.351Z,98996.34
2023-04-01T07:40:02.023Z,99003.41
2023-04-01T07:43:10.798Z,98994.31
2023-04-01T07:46:31.730Z,99008.06
2023-04-01T07:50:07.319Z,99004.09
2023-04-01T07:53:14.902Z,99008.84
2023-04-01T07:56:38.836Z,99018.87
2023-04-01T07:59:43.466Z,99018.78
2023-04-01T08:03:07.558Z,99011.34
2023-04-01T08:06:12.777Z,99017.50
2023-04-01T08:09:31.717Z,99012.56
2023-04-01T08:13:02.691Z,99009.84
2023-04-01T08:16:17.196Z,99009.53
2023-04-01T08:19:22.128Z,99014.28
2023-04-01T08:22:51.868Z,99018.00
2023-04-01T08:26:16.678Z,99026.37
2023-04-01T08:30:10.075Z,99028.81
2023-04-01T08:33:18.577Z,99041.37
2023-04-01T08:36:24.976Z,99051.81
2023-04-01T08:39:37.544Z,99043.78
2023-04-01T08:42:51.250Z,99054.06
2023-04-01T08:46:02.556Z,99055.19
2023-04-01T08:49:07.224Z,99065.72
2023-04-01T08:52:27.540Z,99048.19
2023-04-01T08:55:38.985Z,99049.63
2023-04-01T08:59:15.566Z,99042.84
2023-04-01T09:02:55.025Z,99024.09
2023-04-01T09:06:30.024Z,99034.19
2023-04-01T09:10:11.306Z,99034.78
2023-04-01T09:13:31.269Z,99019.63
2023-04-01T09:16:39.044Z,99019.81
2023-04-01T09:20:07.860Z,99026.16
2023-04-01T09:23:41.138Z,99002.87
2023-04-01T09:26:57.287Z,99019.38
2023-04-01T09:30:03.360Z,99006.34
2023-04-01T09:33:23.441Z,99029.19
2023-04-01T09:36:46.908Z,99016.13
2023-04-01T09:40:09.873Z,99022.50
2023-04-01T09:43:26.061Z,99013.28
2023-04-01T09:46:46.633Z,99014.53
2023-04-01T09:50:02.008Z,99027.16
2023-04-01T09:53:19.142Z,99028.53
2023-04-01T09:56:42.808Z,99013.69
2023-04-01T10:00:07.408Z,99028.69
2023-04-01T10:03:29.675Z,99031.75
2023-04-01T10:07:09.034Z,99018.81
2023-04-01T10:10:47.532Z,99048.47
2023-04-01T10:14:17.343Z,99044.75
2023-04-01T10:17:40.605Z,99061.78
2023-04-01T10:21:27.626Z,99051.19
2023-04-01T10:24:52.351Z,99057.47
2023-04-01T10:28:36.655Z,99056.34
2023-04-01T10:32:12.574Z,99070.03
2023-04-01T10:35:51.814Z,99074.50
2023-04-01T10:39:26.267Z,99075.78
2023-04-01T10:42:37.140Z,99073.94
2023-04-01T10:45:55.832Z,99080.16
2023-04-01T10:49:16.097Z,99060.22
2023-04-01T10:52:26.890Z,99067.38
2023-04-01T10:55:37.837Z,99051.97
2023-04-01T10:59:16.891Z,99048.25
2023-04-01T11:02:37.079Z,99033.69
2023-04-01T11:05:47.758Z,99017.00
2023-04-01T11:09:08.267Z,99010.78
2023-04-01T11:12:35.081Z,98975.28
2023-04-01T11:15:55.657Z,98970.72
2023-04-01T11:19:38.136Z,98989.00
2023-04-01T11:22:43.009Z,98971.06
2023-04-01T11:25:57.234Z,98962.28
2023-04-01T11:29:14.100Z,98975.16
2023-04-01T11:32:48.905Z,98964.50
2023-04-01T11:35:58.440Z,98981.91
2023-04-01T11:39:30.077Z,98966.00
2023-04-01T11:42:37.969Z,98969.56
2023-04-01T11:45:39.874Z,98977.69
2023-04-01T11:49:03.476Z,98991.84
2023-04-01T11:52:17.462Z,99019.94
2023-04-01T11:55:33.211Z,99026.50
2023-04-01T11:58:38.228Z,99024.50
2023-04-01T12:02:27.842Z,99021.25
2023-04-01T12:06:00.460Z,98985.59
2023-04-01T12:09:17.269Z,98992.38
2023-04-01T12:12:31.162Z,99003.69
2023-04-01T12:15:54.555Z,98994.22
2023-04-01T12:19:18.528Z,98993.72
2023-04-01T12:22:41.803Z,98983.41
2023-04-01T12:26:28.862Z,98994.56
2023-04-01T12:29:51.507Z,98990.53
2023-04-01T12:33:05.620Z,98990.50
2023-04-01T12:36:32.487Z,98971.41
2023-04-01T12:39:50.733Z,98972.41
2023-04-01T12:43:11.821Z,98980.88
2023-04-01T12:46:33.515Z,98970.41
2023-04-01T12:49:48.775Z,98970.06
2023-04-01T12:53:16.594Z,98968.72
2023-04-01T12:57:00.445Z,98937.03
2023-04-01T13:00:39.212Z,98950.06
2023-04-01T13:03:50.455Z,98943.19
2023-04-01T13:06:58.686Z,98940.47
2023-04-01T13:10:28.567Z,98925.44
2023-04-01T13:13:42.706Z,98927.41
2023-04-01T13:17:23.146Z,98911.03
2023-04-01T13:20:29.037Z,98930.28
2023-04-01T13:23:44.286Z,98929.06
2023-04-01T13:27:07.163Z,98933.97
2023-04-01T13:30:26.863Z,98941.37
2023-04-01T13:33:55.027Z,98925.84
2023-04-01T13:37:12.733Z,98919.41
2023-04-01T13:40:18.130Z,98912.31
2023-04-01T13:43:24.409Z,98924.50
2023-04-01T13:46:58.458Z,98940.03
2023-04-01T13:50:16.525Z,98929.22
2023-04-01T13:53:40.447Z,98917.38
2023-04-01T13:56:45.445Z,98928.22
2023-04-01T14:00:00.760Z,98921.22
2023-04-01T14:03:20.604Z,98920.56
2023-04-01T14:06:41.255Z,98918.56
2023-04-01T14:09:55.764Z,98907.16
2023-04-01T14:13:36.597Z,98921.09
2023-04-01T14:16:41.424Z,98932.88
2023-04-01T14:20:01.383Z,98921.13
2023-04-01T14:23:43.471Z,98927.47
2023-04-01T14:26:54.158Z,98928.38
2023-04-01T14:30:23.776Z,98925.31
2023-04-01T14:33:28.465Z,98920.75
2023-04-01T14:36:43.161Z,98915.00
2023-04-01T14:39:56.076Z,98909.44
2023-04-01T14:43:07.328Z,98917.00
2023-04-01T14:46:33.556Z,98950.78
2023-04-01T14:49:37.647Z,99006.94
2023-04-01T14:52:42.873Z,99033.84
2023-04-01T14:55:44.562Z,99045.12
2023-04-01T14:58:48.491Z,99035.41
2023-04-01T15:01:59.535Z,99043.19
2023-04-01T15:05:43.133Z,99039.53
2023-04-01T15:08:54.353Z,99045.84
2023-04-01T15:12:08.201Z,99043.66
2023-04-01T15:15:48.179Z,99043.72
2023-04-01T15:19:13.305Z,99051.13
2023-04-01T15:23:08.222Z,99058.16
2023-04-01T15:26:41.224Z,99057.25
2023-04-01T15:29:49.293Z,99067.03
2023-04-01T15:32:57.341Z,99068.97
2023-04-01T15:36:21.353Z,99080.63
2023-04-01T15:39:51.442Z,99079.37
2023-04-01T15:43:31.717Z,99079.37
2023-04-01T15:46:49.097Z,99087.16
2023-04-01T15:50:09.069Z,99094.94
2023-04-01T15:53:45.646Z,99089.62
2023-04-01T15:56:50.081Z,99091.41
2023-04-01T15:59:54.966Z,99107.41
2023-04-01T16:03:15.946Z,99099.81
2023-04-01T16:06:49.952Z,99099.41
2023-04-01T16:10:17.900Z,99105.50
2023-04-01T16:13:30.480Z,99116.19
2023-04-01T16:16:53.628Z,99116.37
2023-04-01T16:20:10.649Z,99115.97
2023-04-01T16:23:28.561Z,99121.06
2023-04-01T16:26:56.484Z,99123.34
2023-04-01T16:30:22.857Z,99119.66
2023-04-01T16:33:53.410Z,99129.47
2023-04-01T16:37:14.204Z,99129.75
2023-04-01T16:40:21.994Z,99121.72
2023-04-01T16:43:30.376Z,99142.13
2023-04-01T16:46:33.649Z,99139.13
2023-04-01T16:49:53.323Z,99143.03
2023-04-01T16:53:03.356Z,99149.28
2023-04-01T16:56:13.136Z,99147.09
2023-04-01T16:59:21.273Z,99161.13
2023-04-01T17:02:39.601Z,99155.31
2023-04-01T17:06:16.852Z,99160.59
2023-04-01T17:09:41.471Z,99160.78
2023-04-01T17:13:10.029Z,99164.19
2023-04-01T17:16:37.277Z,99165.38
2023-04-01T17:19:50.850Z,99171.66
2023-04-01T17:23:05.449Z,99180.44
2023-04-01T17:26:28.702Z,99189.97
2023-04-01T17:29:59.989Z,99188.09
2023-04-01T17:33:23.846Z,99196.34
2023-04-01T17:36:44.249Z,99207.13
2023-04-01T17:39:57.578Z,99194.94
2023-04-01T17:43:31.131Z,99209.97
2023-04-01T17:46:42.184Z,99217.03
2023-04-01T17:50:00.884Z,99223.97
2023-04-01T17:53:29.696Z,99219.00
2023-04-01T17:57:05.890Z,99227.25
2023-04-01T18:00:14.163Z,99226.94
2023-04-01T18:03:31.194Z,99228.09
2023-04-01T18:07:25.761Z,99234.00
2023-04-01T18:10:37.331Z,99239.66
2023-04-01T18:13:48.204Z,99246.19
2023-04-01T18:17:14.851Z,99250.97
2023-04-01T18:20:32.659Z,99250.97
2023-04-01T18:23:44.584Z,99247.84
2023-04-01T18:27:06.279Z,99265.09
2023-04-01T18:30:09.579Z,99252.06
2023-04-01T18:33:24.037Z,99267.47
2023-04-01T18:36:51.202Z,99269.16
2023-04-01T18:39:58.956Z,99267.53
2023-04-01T18:43:13.207Z,99282.53
2023-04-01T18:46:25.484Z,99280.00
2023-04-01T18:49:43.137Z,99279.81
2023-04-01T18:52:45.755Z,99287.75
2023-04-01T18:55:54.439Z,99287.88
2023-04-01T18:59:06.477Z,99294.38
2023-04-01T19:02:33.123Z,99303.69
2023-04-01T19:05:39.447Z,99307.34
2023-04-01T19:08:42.164Z,99304.91
2023-04-01T19:12:13.718Z,99311.28
2023-04-01T19:15:28.105Z,99313.38
2023-04-01T19:18:32.801Z,99308.13
2023-04-01T19:21:38.909Z,99306.44
2023-04-01T19:24:44.032Z,99307.41
2023-04-01T19:28:02.121Z,99300.34
2023-04-01T19:31:25.235Z,99311.22
2023-04-01T19:34:51.009Z,99314.03
2023-04-01T19:38:19.230Z,99308.91
2023-04-01T19:41:32.534Z,99317.25
2023-04-01T19:44:43.031Z,99329.50
2023-04-01T19:48:18.635Z,99328.63
2023-04-01T19:51:43.962Z,99329.78
2023-04-01T19:54:52.115Z,99330.09
2023-04-01T19:57:58.195Z,99328.38
2023-04-01T20:01:01.311Z,99323.88
2023-04-01T20:04:13.604Z,99319.62
2023-04-01T20:07:32.898Z,99326.22
2023-04-01T20:10:50.185Z,99324.53
2023-04-01T20:14:02.291Z,99328.31
2023-04-01T20:17:07.478Z,99342.41
2023-04-01T20:20:09.568Z,99333.03
2023-04-01T20:23:11.827Z,99332.09
2023-04-01T20:26:14.385Z,99344.78
2023-04-01T20:29:35.823Z,99345.91
2023-04-01T20:32:50.111Z,99354.59
2023-04-01T20:36:13.067Z,99375.41
2023-04-01T20:39:31.779Z,99380.53
2023-04-01T20:43:09.693Z,99405.69
2023-04-01T20:46:24.209Z,99406.91
2023-04-01T20:50:03.711Z,99403.50
2023-04-01T20:53:13.964Z,99441.22
2023-04-01T20:56:15.881Z,99441.09
2023-04-01T20:59:44.135Z,99467.13
2023-04-01T21:03:13.550Z,99456.34
2023-04-01T21:06:37.073Z,99452.69
2023-04-01T21:09:50.164Z,99451.00
2023-04-01T21:13:27.664Z,99438.13
2023-04-01T21:16:53.908Z,99445.88
2023-04-01T21:20:17.498Z,99454.66
2023-04-01T21:23:31.087Z,99449.53
2023-04-01T21:26:51.566Z,99449.66
2023-04-01T21:30:16.596Z,99445.41
2023-04-01T21:33:21.476Z,99457.97
2023-04-01T21:36:52.179Z,99456.50
2023-04-01T21:40:04.613Z,99469.72
2023-04-01T21:43:21.807Z,99460.41
2023-04-01T21:46:42.428Z,99465.13
2023-04-01T21:50:05.478Z,99474.91
2023-04-01T21:53:35.371Z,99478.88
2023-04-01T21:56:46.368Z,99482.00
2023-04-01T22:00:17.898Z,99493.00
2023-04-01T22:03:53.797Z,99478.69
2023-04-01T22:07:13.863Z,99483.59
2023-04-01T22:10:24.020Z,99481.69
2023-04-01T22:13:44.290Z,99474.09
2023-04-01T22:16:58.708Z,99475.81
2023-04-01T22:20:12.773Z,99478.69
2023-04-01T22:23:52.189Z,99474.13
2023-04-01T22:27:18.575Z,99479.38
2023-04-01T22:30:31.382Z,99498.37
2023-04-01T22:33:48.867Z,99495.34
2023-04-01T22:37:02.575Z,99525.66
2023-04-01T22:40:22.637Z,99513.81
2023-04-01T22:43:39.377Z,99503.47
2023-04-01T22:47:03.027Z,99506.47
2023-04-01T22:50:17.454Z,99490.87
2023-04-01T22:53:38.094Z,99483.19
2023-04-01T22:56:44.890Z,99475.31
2023-04-01T22:59:55.829Z,99495.06
2023-04-01T23:03:17.689Z,99501.34
2023-04-01T23:06:34.522Z,99511.88
2023-04-01T23:09:38.348Z,99510.91
2023-04-01T23:12:41.276Z,99509.31
2023-04-01T23:15:43.445Z,99494.06
2023-04-01T23:19:14.879Z,99508.84
2023-04-01T23:22:24.755Z,99490.69
2023-04-01T23:25:41.340Z,99491.25
2023-04-01T23:28:55.624Z,99511.22
2023-04-01T23:31:59.525Z,99506.09
2023-04-01T23:35:01.550Z,99515.38
2023-04-01T23:38:03.487Z,99513.78
2023-04-01T23:41:07.088Z,99505.31
2023-04-01T23:44:14.148Z,99514.31
2023-04-01T23:47:22.721Z,99517.84
2023-04-01T23:50:25.471Z,99511.56
2023-04-01T23:53:31.510Z,99508.22
2023-04-01T23:56:36.663Z,99516.97
2023-04-01T23:59:38.722Z,99509.28
